Time;durP1;ratioP1;P1;durP2;ratioP2;P2;SDS_P1;SDS_P2;PMS_P1;PMS_P2;Temp;Humidity;BMP_temperature;BMP_pressure;BME280_temperature;BME280_humidity;BME280_pressure;Samples;Min_cycle;Max_cycle;Signal;HPM_P1;HPM_P2
2023/05/10 00:00:11;;;;;;;;;;;282.50;2278.40;;;;;;5035973;28;20011;-71
2023/05/10 00:02:36;;;;;;;;;;;282.50;2278.40;;;;;;5035924;28;20376;-71
2023/05/10 00:05:02;;;;;;;;;;;282.50;2278.40;;;;;;5035781;28;20280;-71
2023/05/10 00:07:27;;;;;;;;;;;282.50;2278.40;;;;;;5035796;28;19905;-71
2023/05/10 00:09:53;;;;;;;;;;;282.40;2278.40;;;;;;5035846;28;19905;-71
2023/05/10 00:12:18;;;;;;;;;;;282.40;2278.40;;;;;;5035920;28;19927;-80
2023/05/10 00:14:44;;;;;;;;;;;282.50;2278.40;;;;;;5036188;28;19909;-79
2023/05/10 00:17:10;;;;;;;;;;;282.50;2278.40;;;;;;5036300;28;19905;-71
2023/05/10 00:19:36;;;;;;;;;;;282.50;2278.40;;;;;;5035397;28;20269;-71
2023/05/10 00:22:01;;;;;;;;;;;282.50;2278.40;;;;;;5035848;28;19955;-72
2023/05/10 00:24:27;;;;;;;;;;;282.50;2278.40;;;;;;5035683;28;19913;-74
2023/05/10 00:26:52;;;;;;;;;;;282.50;2278.40;;;;;;5035493;28;19959;-71
2023/05/10 00:29:19;;;;;;;;;;;282.50;2278.40;;;;;;5035230;28;19905;-79
2023/05/10 00:31:44;;;;;;;;;;;282.40;2278.40;;;;;;5035161;28;20361;-71
2023/05/10 00:34:10;;;;;;;;;;;282.30;2278.40;;;;;;5034998;28;19955;-71
2023/05/10 00:36:36;;;;;;;;;;;282.30;2278.40;;;;;;5035028;28;19909;-71
2023/05/10 00:39:03;;;;;;;;;;;282.30;2278.40;;;;;;5035255;28;19905;-72
2023/05/10 00:41:29;;;;;;;;;;;282.20;2278.40;;;;;;5033605;28;20357;-70
2023/05/10 00:43:54;;;;;;;;;;;282.20;2278.40;;;;;;5035008;28;19964;-71
2023/05/10 00:46:21;;;;;;;;;;;282.10;2278.40;;;;;;5034923;28;20003;-71
2023/05/10 00:48:47;;;;;;;;;;;282.10;2278.40;;;;;;5034717;28;20254;-70
2023/05/10 00:51:13;;;;;;;;;;;282.20;2278.40;;;;;;5034833;28;19912;-71
2023/05/10 00:53:38;;;;;;;;;;;282.10;2278.40;;;;;;5034535;28;19996;-71
2023/05/10 00:56:05;;;;;;;;;;;282.10;2278.40;;;;;;5034501;28;20346;-71
2023/05/10 00:58:30;;;;;;;;;;;282.10;2278.40;;;;;;5034123;28;19909;-71
2023/05/10 01:00:56;;;;;;;;;;;282.30;2278.40;;;;;;5034707;28;19928;-71
2023/05/10 01:03:22;;;;;;;;;;;282.30;2278.40;;;;;;5034547;28;19905;-71
2023/05/10 01:05:48;;;;;;;;;;;282.30;2278.40;;;;;;5034460;28;19928;-71
2023/05/10 01:08:13;;;;;;;;;;;282.40;2278.40;;;;;;5034545;28;20007;-71
2023/05/10 01:10:39;;;;;;;;;;;282.30;2278.40;;;;;;5034669;28;19912;-70
2023/05/10 01:13:04;;;;;;;;;;;282.40;2278.40;;;;;;5034551;28;19952;-71
2023/05/10 01:15:30;;;;;;;;;;;282.40;2278.40;;;;;;5034367;28;19913;-71
2023/05/10 01:17:56;;;;;;;;;;;282.40;2278.40;;;;;;5034531;28;19959;-71
2023/05/10 01:20:22;;;;;;;;;;;282.40;2278.40;;;;;;5034201;28;19905;-71
2023/05/10 01:22:50;;;;;;;;;;;282.40;2278.40;;;;;;5034404;28;19940;-71
2023/05/10 01:25:34;;;;;;;;;;;282.50;2278.40;;;;;;5034171;28;19923;-71
2023/05/10 01:28:11;;;;;;;;;;;282.50;2278.40;;;;;;5034187;28;19912;-72
2023/05/10 01:30:43;;;;;;;;;;;307.20;2304.00;;;;;;5034190;28;19912;-71
2023/05/10 01:33:19;;;;;;;;;;;307.20;2304.00;;;;;;5034217;28;19909;-71
2023/05/10 01:35:53;;;;;;;;;;;282.50;2278.40;;;;;;5033945;28;19904;-71
2023/05/10 01:38:22;;;;;;;;;;;282.50;2278.40;;;;;;5034037;28;19905;-71
2023/05/10 01:41:03;;;;;;;;;;;307.20;2304.00;;;;;;5034145;28;20010;-82
2023/05/10 01:43:32;;;;;;;;;;;282.50;2278.40;;;;;;5033864;28;19911;-72
2023/05/10 01:46:19;;;;;;;;;;;282.40;2278.40;;;;;;5034125;28;19913;-71
2023/05/10 01:48:51;;;;;;;;;;;282.40;2278.40;;;;;;5033942;28;19991;-71
2023/05/10 01:51:19;;;;;;;;;;;282.20;2278.40;;;;;;5033874;28;19905;-71
2023/05/10 01:53:46;;;;;;;;;;;282.20;2278.40;;;;;;5033591;28;19917;-71
2023/05/10 01:56:12;;;;;;;;;;;282.10;2278.40;;;;;;5033754;28;19967;-71
2023/05/10 01:58:40;;;;;;;;;;;282.20;2278.40;;;;;;5033975;28;19958;-72
2023/05/10 02:01:06;;;;;;;;;;;282.20;2278.40;;;;;;5033831;28;19905;-72
2023/05/10 02:03:32;;;;;;;;;;;282.00;2278.40;;;;;;5033873;28;20273;-71
2023/05/10 02:05:58;;;;;;;;;;;282.00;2278.40;;;;;;5033555;28;19916;-71
2023/05/10 02:08:24;;;;;;;;;;;282.00;2278.40;;;;;;5036164;28;19905;-72
2023/05/10 02:10:52;;;;;;;;;;;282.00;2278.40;;;;;;5040303;28;19912;-71
2023/05/10 02:13:18;;;;;;;;;;;282.00;2278.40;;;;;;5040191;28;19905;-72
2023/05/10 02:15:47;;;;;;;;;;;281.80;2278.40;;;;;;5040401;28;19911;-71
2023/05/10 02:18:13;;;;;;;;;;;281.80;2278.40;;;;;;5040349;28;19912;-72
2023/05/10 02:20:39;;;;;;;;;;;281.80;2278.40;;;;;;5040181;28;19913;-72
2023/05/10 02:23:06;;;;;;;;;;;281.80;2278.40;;;;;;5040155;28;19909;-71
2023/05/10 02:25:32;;;;;;;;;;;281.90;2278.40;;;;;;5039887;28;19917;-71
2023/05/10 02:27:59;;;;;;;;;;;281.80;2278.40;;;;;;5040220;28;19905;-82
2023/05/10 02:30:25;;;;;;;;;;;281.80;2278.40;;;;;;5040088;28;19951;-73
2023/05/10 02:32:52;;;;;;;;;;;281.80;2278.40;;;;;;5040013;28;19968;-71
2023/05/10 02:35:18;;;;;;;;;;;281.80;2278.40;;;;;;5039907;28;19958;-72
2023/05/10 02:37:45;;;;;;;;;;;281.80;2278.40;;;;;;5039954;28;19909;-72
2023/05/10 02:40:11;;;;;;;;;;;281.80;2278.40;;;;;;5040081;28;20008;-82
2023/05/10 02:42:37;;;;;;;;;;;281.80;2278.40;;;;;;5040007;28;20376;-71
2023/05/10 02:45:07;;;;;;;;;;;281.80;2278.40;;;;;;5039942;28;19913;-72
2023/05/10 02:47:33;;;;;;;;;;;281.80;2278.40;;;;;;5039986;28;19952;-72
2023/05/10 02:49:58;;;;;;;;;;;281.80;2278.40;;;;;;5039907;28;19952;-81
2023/05/10 02:52:29;;;;;;;;;;;281.90;2278.40;;;;;;5039866;28;19909;-72
2023/05/10 02:54:58;;;;;;;;;;;281.90;2278.40;;;;;;5040258;28;19925;-71
2023/05/10 02:57:28;;;;;;;;;;;281.90;2278.40;;;;;;5039892;28;19992;-71
2023/05/10 02:59:54;;;;;;;;;;;282.00;2278.40;;;;;;5039789;28;19905;-71
2023/05/10 03:02:20;;;;;;;;;;;281.80;2278.40;;;;;;5040748;28;19952;-72
2023/05/10 03:04:45;;;;;;;;;;;281.70;2278.40;;;;;;5042009;28;20346;-72
2023/05/10 03:07:11;;;;;;;;;;;281.80;2278.40;;;;;;5041409;28;19905;-71
2023/05/10 03:09:37;;;;;;;;;;;281.70;2278.40;;;;;;5039543;28;19905;-83
2023/05/10 03:12:02;;;;;;;;;;;281.70;2278.40;;;;;;5039677;28;19905;-71
2023/05/10 03:14:34;;;;;;;;;;;281.70;2278.40;;;;;;5039464;28;20589;-71
2023/05/10 03:17:04;;;;;;;;;;;281.70;2278.40;;;;;;5039687;28;19987;-71
2023/05/10 03:19:37;;;;;;;;;;;281.60;2278.40;;;;;;5038138;28;19978;-71
2023/05/10 03:22:06;;;;;;;;;;;281.60;2278.40;;;;;;5036260;28;19905;-71
2023/05/10 03:24:33;;;;;;;;;;;256.90;2252.80;;;;;;5036216;28;20294;-71
2023/05/10 03:27:02;;;;;;;;;;;281.60;2278.40;;;;;;5036486;28;19905;-72
2023/05/10 03:29:29;;;;;;;;;;;281.60;2278.40;;;;;;5036545;28;19905;-71
2023/05/10 03:31:55;;;;;;;;;;;256.90;2252.80;;;;;;5036153;28;19905;-72
2023/05/10 03:34:23;;;;;;;;;;;256.90;2252.80;;;;;;5036391;28;19998;-71
2023/05/10 03:36:49;;;;;;;;;;;281.70;2278.40;;;;;;5036047;28;19905;-72
2023/05/10 03:39:15;;;;;;;;;;;281.70;2278.40;;;;;;5036530;28;20059;-71
2023/05/10 03:41:41;;;;;;;;;;;281.80;2278.40;;;;;;5036849;28;20500;-71
2023/05/10 03:44:06;;;;;;;;;;;281.70;2278.40;;;;;;5036402;28;19913;-73
2023/05/10 03:46:32;;;;;;;;;;;281.80;2278.40;;;;;;5036622;28;19912;-71
2023/05/10 03:48:57;;;;;;;;;;;281.80;2278.40;;;;;;5036166;28;19905;-82
2023/05/10 03:51:27;;;;;;;;;;;281.80;2278.40;;;;;;5036140;28;19912;-72
2023/05/10 03:53:53;;;;;;;;;;;281.80;2278.40;;;;;;5035577;28;20339;-71
2023/05/10 03:56:20;;;;;;;;;;;281.80;2278.40;;;;;;5036275;28;19990;-72
2023/05/10 03:58:46;;;;;;;;;;;281.90;2278.40;;;;;;5036244;28;19930;-73
2023/05/10 04:01:11;;;;;;;;;;;281.90;2278.40;;;;;;5036005;28;19939;-72
2023/05/10 04:03:37;;;;;;;;;;;281.80;2278.40;;;;;;5035657;28;19996;-71
2023/05/10 04:06:03;;;;;;;;;;;281.70;2278.40;;;;;;5035589;28;20396;-71
2023/05/10 04:08:29;;;;;;;;;;;256.90;2252.80;;;;;;5035687;28;19905;-83
2023/05/10 04:11:04;;;;;;;;;;;281.70;2278.40;;;;;;5035490;28;19912;-71
2023/05/10 04:13:29;;;;;;;;;;;281.80;2278.40;;;;;;5035454;28;19905;-71
2023/05/10 04:15:55;;;;;;;;;;;281.70;2278.40;;;;;;5035307;28;19912;-71
2023/05/10 04:18:21;;;;;;;;;;;281.80;2278.40;;;;;;5035427;28;19956;-71
2023/05/10 04:20:46;;;;;;;;;;;281.80;2278.40;;;;;;5035364;28;19909;-72
2023/05/10 04:23:13;;;;;;;;;;;281.90;2278.40;;;;;;5034955;28;20379;-71
2023/05/10 04:25:39;;;;;;;;;;;281.90;2278.40;;;;;;5035050;28;19940;-71
2023/05/10 04:28:04;;;;;;;;;;;282.00;2278.40;;;;;;5035264;28;20281;-72
2023/05/10 04:30:30;;;;;;;;;;;282.00;2278.40;;;;;;5035084;28;19916;-71
2023/05/10 04:32:56;;;;;;;;;;;282.00;2278.40;;;;;;5034954;28;19905;-72
2023/05/10 04:35:21;;;;;;;;;;;282.10;2278.40;;;;;;5034994;28;20288;-72
2023/05/10 04:37:47;;;;;;;;;;;282.00;2278.40;;;;;;5034868;28;20332;-72
2023/05/10 04:40:12;;;;;;;;;;;282.20;2278.40;;;;;;5034902;28;19909;-71
2023/05/10 04:42:39;;;;;;;;;;;282.20;2278.40;;;;;;5034949;28;20358;-71
2023/05/10 04:45:06;;;;;;;;;;;282.20;2278.40;;;;;;5034926;28;19913;-72
2023/05/10 04:47:31;;;;;;;;;;;282.30;2278.40;;;;;;5034801;28;19909;-75
2023/05/10 04:49:57;;;;;;;;;;;282.20;2278.40;;;;;;5034875;28;19913;-70
2023/05/10 04:52:22;;;;;;;;;;;282.20;2278.40;;;;;;5034498;28;20385;-70
2023/05/10 04:54:48;;;;;;;;;;;282.20;2278.40;;;;;;5034477;28;19947;-70
2023/05/10 04:57:13;;;;;;;;;;;282.20;2278.40;;;;;;5034530;28;19995;-70
2023/05/10 04:59:39;;;;;;;;;;;282.20;2278.40;;;;;;5034722;28;19959;-69
2023/05/10 05:02:05;;;;;;;;;;;282.30;2278.40;;;;;;5034512;28;19947;-70
2023/05/10 05:04:31;;;;;;;;;;;282.40;2278.40;;;;;;5034466;28;20300;-70
2023/05/10 05:06:56;;;;;;;;;;;282.40;2278.40;;;;;;5034465;28;19937;-71
2023/05/10 05:09:22;;;;;;;;;;;282.50;2278.40;;;;;;5034303;28;19905;-71
2023/05/10 05:11:48;;;;;;;;;;;282.50;2278.40;;;;;;5034630;28;19912;-72
2023/05/10 05:14:14;;;;;;;;;;;282.50;2278.40;;;;;;5034514;28;20353;-71
2023/05/10 05:16:39;;;;;;;;;;;307.20;2304.00;;;;;;5034359;28;19988;-71
2023/05/10 05:19:05;;;;;;;;;;;307.30;2304.00;;;;;;5034241;28;19959;-71
2023/05/10 05:21:31;;;;;;;;;;;307.60;2304.00;;;;;;5031763;28;19913;-71
2023/05/10 05:23:57;;;;;;;;;;;307.70;2304.00;;;;;;5027648;28;19952;-72
2023/05/10 05:26:23;;;;;;;;;;;307.90;2304.00;;;;;;5026206;28;20306;-71
2023/05/10 05:28:51;;;;;;;;;;;308.10;2304.00;;;;;;5027370;28;20368;-73
2023/05/10 05:31:17;;;;;;;;;;;332.80;2329.60;;;;;;5026699;28;19905;-73
2023/05/10 05:33:43;;;;;;;;;;;332.90;2329.60;;;;;;5025717;28;19905;-72
2023/05/10 05:36:09;;;;;;;;;;;333.00;2329.60;;;;;;5033075;28;20280;-71
2023/05/10 05:38:34;;;;;;;;;;;333.10;2329.60;;;;;;5032610;28;19992;-71
2023/05/10 05:41:00;;;;;;;;;;;333.30;2329.60;;;;;;5015153;28;19912;-71
2023/05/10 05:43:25;;;;;;;;;;;333.40;2329.60;;;;;;5024029;28;20326;-72
2023/05/10 05:45:54;;;;;;;;;;;333.50;2329.60;;;;;;5028896;28;20020;-71
2023/05/10 05:48:19;;;;;;;;;;;333.70;2329.60;;;;;;5024653;28;19912;-71
2023/05/10 05:50:45;;;;;;;;;;;358.40;2329.60;;;;;;5025502;28;19909;-71
2023/05/10 05:53:11;;;;;;;;;;;333.70;2329.60;;;;;;5026836;28;19929;-73
2023/05/10 05:55:36;;;;;;;;;;;358.40;2329.60;;;;;;5021791;28;19909;-72
2023/05/10 05:58:02;;;;;;;;;;;358.50;2329.60;;;;;;5022955;28;19951;-71
2023/05/10 06:00:28;;;;;;;;;;;358.70;2329.60;;;;;;5024149;28;19913;-71
2023/05/10 06:02:54;;;;;;;;;;;358.70;2329.60;;;;;;5029424;28;19944;-72
2023/05/10 06:05:20;;;;;;;;;;;358.70;2329.60;;;;;;5028025;28;19913;-72
2023/05/10 06:07:45;;;;;;;;;;;358.70;2329.60;;;;;;5032805;28;19947;-73
2023/05/10 06:10:11;;;;;;;;;;;358.70;2329.60;;;;;;5026215;28;19944;-71
2023/05/10 06:12:37;;;;;;;;;;;358.70;2329.60;;;;;;5026340;28;19913;-73
2023/05/10 06:15:03;;;;;;;;;;;358.80;2329.60;;;;;;5028863;28;19905;-71
2023/05/10 06:17:28;;;;;;;;;;;359.00;2329.60;;;;;;5027812;28;19951;-71
2023/05/10 06:19:54;;;;;;;;;;;359.30;2329.60;;;;;;5028530;28;19957;-73
2023/05/10 06:22:21;;;;;;;;;;;384.00;2329.60;;;;;;5031565;28;19915;-73
2023/05/10 06:24:47;;;;;;;;;;;359.30;2329.60;;;;;;5027859;28;19947;-71
2023/05/10 06:27:12;;;;;;;;;;;359.20;2329.60;;;;;;5028268;28;20272;-71
2023/05/10 06:29:38;;;;;;;;;;;359.20;2329.60;;;;;;5026487;28;19909;-73
2023/05/10 06:32:04;;;;;;;;;;;359.20;2329.60;;;;;;5030198;28;19905;-73
2023/05/10 06:34:30;;;;;;;;;;;384.00;2329.60;;;;;;5029062;28;19909;-71
2023/05/10 06:36:55;;;;;;;;;;;384.00;2329.60;;;;;;5027253;28;19918;-71
2023/05/10 06:39:21;;;;;;;;;;;384.00;2329.60;;;;;;5028528;28;19944;-72
2023/05/10 06:41:46;;;;;;;;;;;384.00;2329.60;;;;;;5024840;28;19911;-72
2023/05/10 06:44:12;;;;;;;;;;;384.50;2329.60;;;;;;5024366;28;19912;-72
2023/05/10 06:46:38;;;;;;;;;;;384.80;2329.60;;;;;;5022771;28;19905;-72
2023/05/10 06:49:04;;;;;;;;;;;384.90;2329.60;;;;;;5025831;28;20431;-72
2023/05/10 06:51:30;;;;;;;;;;;384.70;2329.60;;;;;;5028092;28;19992;-72
2023/05/10 06:53:56;;;;;;;;;;;384.60;2329.60;;;;;;5019558;28;19917;-71
2023/05/10 06:56:21;;;;;;;;;;;384.70;2329.60;;;;;;5026926;28;20440;-70
2023/05/10 06:58:47;;;;;;;;;;;384.90;2329.60;;;;;;5032159;28;19908;-71
2023/05/10 07:01:13;;;;;;;;;;;409.90;2355.20;;;;;;5031698;28;20315;-71
2023/05/10 07:03:38;;;;;;;;;;;410.00;2355.20;;;;;;5036035;28;19905;-71
2023/05/10 07:06:04;;;;;;;;;;;410.20;2355.20;;;;;;5031724;28;20016;-71
2023/05/10 07:08:30;;;;;;;;;;;410.20;2355.20;;;;;;5032434;28;19905;-76
2023/05/10 07:11:00;;;;;;;;;;;435.20;2355.20;;;;;;5035557;28;20400;-71
2023/05/10 07:13:25;;;;;;;;;;;435.30;2355.20;;;;;;5030849;28;19944;-71
2023/05/10 07:15:51;;;;;;;;;;;410.40;2355.20;;;;;;5029340;28;19971;-71
2023/05/10 07:18:16;;;;;;;;;;;410.50;2355.20;;;;;;5031210;28;19905;-70
2023/05/10 07:20:42;;;;;;;;;;;435.20;2355.20;;;;;;5030112;28;20356;-70
2023/05/10 07:23:08;;;;;;;;;;;410.30;2355.20;;;;;;5035332;28;19909;-70
2023/05/10 07:25:33;;;;;;;;;;;410.20;2355.20;;;;;;5028839;28;19924;-70
2023/05/10 07:27:59;;;;;;;;;;;410.20;2355.20;;;;;;5031041;28;19916;-71
2023/05/10 07:30:24;;;;;;;;;;;410.20;2355.20;;;;;;5033141;28;19905;-71
2023/05/10 07:32:50;;;;;;;;;;;410.00;2355.20;;;;;;5030653;28;19927;-71
2023/05/10 07:35:15;;;;;;;;;;;409.80;2355.20;;;;;;5027921;28;19952;-71
2023/05/10 07:37:41;;;;;;;;;;;409.80;2355.20;;;;;;5030404;28;19909;-71
2023/05/10 07:40:07;;;;;;;;;;;410.00;2355.20;;;;;;5034641;28;19948;-72
2023/05/10 07:42:32;;;;;;;;;;;410.20;2355.20;;;;;;5030720;28;19909;-71
2023/05/10 07:44:58;;;;;;;;;;;410.30;2355.20;;;;;;5028472;28;19917;-70
2023/05/10 07:47:23;;;;;;;;;;;410.30;2355.20;;;;;;5030021;28;19912;-72
2023/05/10 07:49:49;;;;;;;;;;;410.50;2355.20;;;;;;5033153;28;19912;-74
2023/05/10 07:52:15;;;;;;;;;;;410.40;2355.20;;;;;;5032024;28;19963;-73
2023/05/10 07:54:40;;;;;;;;;;;410.40;2355.20;;;;;;5023872;28;19956;-72
2023/05/10 07:57:07;;;;;;;;;;;410.40;2355.20;;;;;;5033876;28;19921;-73
2023/05/10 07:59:33;;;;;;;;;;;435.20;2355.20;;;;;;5030719;28;19905;-74
2023/05/10 08:01:58;;;;;;;;;;;435.30;2355.20;;;;;;5031814;28;19947;-72
2023/05/10 08:04:24;;;;;;;;;;;435.20;2355.20;;;;;;5032804;28;19909;-72
2023/05/10 08:06:49;;;;;;;;;;;410.50;2355.20;;;;;;5027091;28;19905;-72
2023/05/10 08:09:15;;;;;;;;;;;435.40;2355.20;;;;;;5033323;28;19909;-72
2023/05/10 08:11:41;;;;;;;;;;;435.50;2355.20;;;;;;5030358;28;20012;-72
2023/05/10 08:14:06;;;;;;;;;;;435.60;2278.40;;;;;;5030277;28;19987;-73
2023/05/10 08:16:32;;;;;;;;;;;435.90;2355.20;;;;;;5034739;28;19910;-72
2023/05/10 08:18:57;;;;;;;;;;;460.80;2304.00;;;;;;5025918;28;19983;-72
2023/05/10 08:21:23;;;;;;;;;;;460.90;2227.20;;;;;;5029887;28;19999;-72
2023/05/10 08:23:49;;;;;;;;;;;461.00;2252.80;;;;;;5022782;28;19905;-72
2023/05/10 08:26:15;;;;;;;;;;;461.20;2124.80;;;;;;5032070;28;19924;-72
2023/05/10 08:28:40;;;;;;;;;;;461.20;2073.60;;;;;;5030459;28;19909;-72
2023/05/10 08:31:06;;;;;;;;;;;461.30;2073.60;;;;;;5033132;28;20277;-71
2023/05/10 08:33:31;;;;;;;;;;;461.40;2022.40;;;;;;5029040;28;20353;-72
2023/05/10 08:35:57;;;;;;;;;;;461.60;1945.60;;;;;;5029602;28;20066;-73
2023/05/10 08:38:22;;;;;;;;;;;461.70;1868.80;;;;;;5025136;28;19936;-73
2023/05/10 08:40:50;;;;;;;;;;;486.40;1868.80;;;;;;5028460;28;19905;-74
2023/05/10 08:43:16;;;;;;;;;;;486.60;1843.20;;;;;;5022001;28;20277;-73
2023/05/10 08:45:42;;;;;;;;;;;486.40;1792.00;;;;;;5025254;28;19923;-72
2023/05/10 08:48:09;;;;;;;;;;;461.70;1792.00;;;;;;5030604;28;19913;-73
2023/05/10 08:50:38;;;;;;;;;;;461.60;1817.60;;;;;;5027317;28;19905;-72
2023/05/10 08:53:06;;;;;;;;;;;461.40;1817.60;;;;;;5023096;28;19913;-72
2023/05/10 08:55:33;;;;;;;;;;;461.20;1817.60;;;;;;5029075;28;19917;-71
2023/05/10 08:57:59;;;;;;;;;;;461.30;1843.20;;;;;;5030565;28;20379;-72
2023/05/10 09:00:26;;;;;;;;;;;461.70;1792.00;;;;;;5022937;28;19911;-72
2023/05/10 09:02:52;;;;;;;;;;;461.50;1792.00;;;;;;5025687;28;20000;-72
2023/05/10 09:05:18;;;;;;;;;;;461.50;1766.40;;;;;;5033597;28;20515;-73
2023/05/10 09:07:43;;;;;;;;;;;461.20;1766.40;;;;;;5028915;28;19905;-73
2023/05/10 09:10:10;;;;;;;;;;;461.10;1766.40;;;;;;5028063;28;19909;-71
2023/05/10 09:12:36;;;;;;;;;;;461.20;1766.40;;;;;;5024521;28;20000;-72
2023/05/10 09:15:01;;;;;;;;;;;461.10;1766.40;;;;;;5031073;28;20434;-72
2023/05/10 09:17:28;;;;;;;;;;;461.20;1766.40;;;;;;5024396;28;19912;-72
2023/05/10 09:20:00;;;;;;;;;;;461.30;1766.40;;;;;;5026840;28;20003;-71
2023/05/10 09:22:26;;;;;;;;;;;461.40;1766.40;;;;;;5027523;28;19906;-70
2023/05/10 09:25:04;;;;;;;;;;;486.40;1740.80;;;;;;5025138;28;19925;-72
2023/05/10 09:27:30;;;;;;;;;;;486.70;1715.20;;;;;;5025225;28;19913;-71
2023/05/10 09:29:55;;;;;;;;;;;486.80;1715.20;;;;;;5029951;28;19905;-71
2023/05/10 09:32:21;;;;;;;;;;;486.70;1715.20;;;;;;5028875;28;19975;-72
2023/05/10 09:34:49;;;;;;;;;;;486.90;1689.60;;;;;;5027931;28;19921;-74
2023/05/10 09:37:14;;;;;;;;;;;487.00;1664.00;;;;;;5023494;28;19905;-73
2023/05/10 09:39:41;;;;;;;;;;;486.70;1689.60;;;;;;5030817;28;19905;-72
2023/05/10 09:42:07;;;;;;;;;;;486.90;1715.20;;;;;;5025705;28;19905;-73
2023/05/10 09:44:33;;;;;;;;;;;486.80;1689.60;;;;;;5025465;28;19960;-72
2023/05/10 09:46:59;;;;;;;;;;;486.80;1664.00;;;;;;5028638;28;19944;-72
2023/05/10 09:49:25;;;;;;;;;;;487.00;1664.00;;;;;;5023293;28;20380;-71
2023/05/10 09:52:00;;;;;;;;;;;487.10;1664.00;;;;;;5027499;28;19936;-72
2023/05/10 09:54:25;;;;;;;;;;;487.20;1612.80;;;;;;5023243;28;19936;-71
2023/05/10 09:56:51;;;;;;;;;;;487.30;1587.20;;;;;;5026277;28;19910;-71
2023/05/10 09:59:18;;;;;;;;;;;512.20;1638.40;;;;;;5030663;28;19905;-72
2023/05/10 10:01:48;;;;;;;;;;;512.40;1587.20;;;;;;5028609;28;19912;-71
2023/05/10 10:04:14;;;;;;;;;;;512.60;1561.60;;;;;;5024797;28;19982;-72
2023/05/10 10:06:40;;;;;;;;;;;512.70;1561.60;;;;;;5031140;28;20371;-74
2023/05/10 10:09:06;;;;;;;;;;;512.90;1536.00;;;;;;5028220;28;19913;-73
2023/05/10 10:11:33;;;;;;;;;;;512.40;1510.40;;;;;;5026071;28;19916;-74
2023/05/10 10:13:59;;;;;;;;;;;512.70;1510.40;;;;;;5025341;28;20312;-73
2023/05/10 10:16:25;;;;;;;;;;;512.90;1484.80;;;;;;5026681;28;19909;-74
2023/05/10 10:18:50;;;;;;;;;;;512.50;1484.80;;;;;;5028334;28;19913;-74
2023/05/10 10:21:16;;;;;;;;;;;512.30;1484.80;;;;;;5031917;28;20345;-72
2023/05/10 10:23:43;;;;;;;;;;;537.60;1510.40;;;;;;5032192;28;19913;-74
2023/05/10 10:26:10;;;;;;;;;;;537.60;1484.80;;;;;;5027641;28;19951;-73
2023/05/10 10:28:47;;;;;;;;;;;537.70;1484.80;;;;;;5030551;28;19905;-72
2023/05/10 10:31:17;;;;;;;;;;;537.80;1510.40;;;;;;5031390;28;19905;-73
2023/05/10 10:33:43;;;;;;;;;;;538.30;1484.80;;;;;;5032796;28;19959;-71
2023/05/10 10:36:09;;;;;;;;;;;538.40;1459.20;;;;;;5034469;28;19931;-72
2023/05/10 10:38:46;;;;;;;;;;;538.50;1459.20;;;;;;5029856;28;19957;-72
2023/05/10 10:41:28;;;;;;;;;;;538.40;1459.20;;;;;;5029221;28;19996;-71
2023/05/10 10:44:13;;;;;;;;;;;538.40;1459.20;;;;;;5025166;28;19905;-72
2023/05/10 10:46:57;;;;;;;;;;;563.20;1510.40;;;;;;5029648;28;19951;-72
2023/05/10 10:49:22;;;;;;;;;;;538.10;1433.60;;;;;;5030613;28;19905;-71
2023/05/10 10:52:06;;;;;;;;;;;537.80;1484.80;;;;;;5031507;28;19912;-72
2023/05/10 10:54:32;;;;;;;;;;;538.10;1484.80;;;;;;5028706;28;19920;-73
2023/05/10 10:57:13;;;;;;;;;;;537.90;1484.80;;;;;;5017949;28;19932;-72
2023/05/10 10:59:43;;;;;;;;;;;537.60;1510.40;;;;;;5030959;28;19905;-72
2023/05/10 11:02:09;;;;;;;;;;;537.70;1510.40;;;;;;5026619;28;19908;-72
2023/05/10 11:04:42;;;;;;;;;;;537.80;1484.80;;;;;;5029959;28;19924;-71
2023/05/10 11:07:17;;;;;;;;;;;538.10;1484.80;;;;;;5033729;28;19905;-73
2023/05/10 11:09:43;;;;;;;;;;;538.40;1484.80;;;;;;5030203;28;19905;-73
2023/05/10 11:12:08;;;;;;;;;;;538.40;1459.20;;;;;;5029733;28;19905;-72
2023/05/10 11:14:34;;;;;;;;;;;537.90;1484.80;;;;;;5035746;28;19905;-72
2023/05/10 11:17:00;;;;;;;;;;;537.80;1510.40;;;;;;5029256;28;19905;-72
2023/05/10 11:19:29;;;;;;;;;;;537.90;1536.00;;;;;;5029866;28;19912;-71
2023/05/10 11:22:04;;;;;;;;;;;538.20;1536.00;;;;;;5022420;28;19909;-72
2023/05/10 11:24:29;;;;;;;;;;;537.60;1510.40;;;;;;5026647;28;19935;-71
2023/05/10 11:26:56;;;;;;;;;;;537.80;1536.00;;;;;;5029705;28;20278;-71
2023/05/10 11:29:22;;;;;;;;;;;537.80;1561.60;;;;;;5032946;28;19917;-72
2023/05/10 11:31:48;;;;;;;;;;;537.60;1561.60;;;;;;5029878;28;19905;-72
2023/05/10 11:34:27;;;;;;;;;;;512.70;1561.60;;;;;;5031124;28;20284;-71
2023/05/10 11:36:53;;;;;;;;;;;538.00;1587.20;;;;;;5024597;28;19905;-73
2023/05/10 11:39:19;;;;;;;;;;;538.10;1561.60;;;;;;5032295;28;19905;-74
2023/05/10 11:41:47;;;;;;;;;;;537.80;1561.60;;;;;;5027437;28;19905;-73
2023/05/10 11:44:12;;;;;;;;;;;537.80;1561.60;;;;;;5026552;28;19905;-73
2023/05/10 11:46:38;;;;;;;;;;;537.80;1587.20;;;;;;5028976;28;19909;-74
2023/05/10 11:49:06;;;;;;;;;;;538.40;1587.20;;;;;;5027490;28;19909;-73
2023/05/10 11:51:39;;;;;;;;;;;537.80;1536.00;;;;;;5030921;28;19908;-73
2023/05/10 11:54:09;;;;;;;;;;;537.90;1587.20;;;;;;5026027;28;19956;-74
2023/05/10 11:56:35;;;;;;;;;;;512.90;1561.60;;;;;;5028192;28;20350;-73
2023/05/10 11:59:02;;;;;;;;;;;512.90;1587.20;;;;;;5034635;28;19912;-73
2023/05/10 12:01:28;;;;;;;;;;;537.80;1587.20;;;;;;5028562;28;20371;-74
2023/05/10 12:03:54;;;;;;;;;;;538.10;1536.00;;;;;;5026810;28;19913;-73
2023/05/10 12:06:20;;;;;;;;;;;538.10;1561.60;;;;;;5030565;28;19921;-72
2023/05/10 12:08:47;;;;;;;;;;;563.20;1587.20;;;;;;5031330;28;19947;-73
2023/05/10 12:11:15;;;;;;;;;;;538.30;1587.20;;;;;;5025986;28;19945;-73
2023/05/10 12:13:41;;;;;;;;;;;538.30;1561.60;;;;;;5034669;28;20323;-73
2023/05/10 12:16:20;;;;;;;;;;;537.90;1561.60;;;;;;5030003;28;19912;-73
2023/05/10 12:18:50;;;;;;;;;;;512.90;1561.60;;;;;;5026625;28;19905;-73
2023/05/10 12:21:16;;;;;;;;;;;538.10;1587.20;;;;;;5022115;28;19905;-73
2023/05/10 12:23:42;;;;;;;;;;;538.40;1561.60;;;;;;5025727;28;19920;-73
2023/05/10 12:26:10;;;;;;;;;;;538.40;1587.20;;;;;;5034196;28;19921;-73
2023/05/10 12:28:36;;;;;;;;;;;538.50;1587.20;;;;;;5027100;28;19980;-73
2023/05/10 12:31:02;;;;;;;;;;;538.10;1561.60;;;;;;5030616;28;19947;-73
2023/05/10 12:33:35;;;;;;;;;;;537.90;1587.20;;;;;;5025206;28;19912;-73
2023/05/10 12:36:02;;;;;;;;;;;537.60;1612.80;;;;;;5029229;28;19909;-72
2023/05/10 12:38:33;;;;;;;;;;;537.90;1612.80;;;;;;5026685;28;19913;-73
2023/05/10 12:41:00;;;;;;;;;;;538.20;1587.20;;;;;;5029651;28;19912;-73
2023/05/10 12:43:25;;;;;;;;;;;538.30;1587.20;;;;;;5029561;28;19909;-74
2023/05/10 12:45:51;;;;;;;;;;;537.90;1587.20;;;;;;5025361;28;19921;-74
2023/05/10 12:48:17;;;;;;;;;;;538.30;1587.20;;;;;;5025097;28;19967;-73
2023/05/10 12:50:42;;;;;;;;;;;538.20;1561.60;;;;;;5026064;28;19905;-73
2023/05/10 12:53:08;;;;;;;;;;;537.90;1587.20;;;;;;5023876;28;20327;-73
2023/05/10 12:55:33;;;;;;;;;;;537.60;1561.60;;;;;;5033686;28;19909;-73
2023/05/10 12:57:59;;;;;;;;;;;538.10;1561.60;;;;;;5025217;28;19905;-74
2023/05/10 13:00:25;;;;;;;;;;;538.50;1587.20;;;;;;5024980;28;19905;-73
2023/05/10 13:02:51;;;;;;;;;;;563.40;1561.60;;;;;;5028036;28;20348;-73
2023/05/10 13:05:16;;;;;;;;;;;563.30;1536.00;;;;;;5027324;28;19927;-73
2023/05/10 13:07:43;;;;;;;;;;;563.20;1510.40;;;;;;5033857;28;19972;-73
2023/05/10 13:10:09;;;;;;;;;;;563.20;1536.00;;;;;;5029217;28;19912;-73
2023/05/10 13:12:35;;;;;;;;;;;563.30;1510.40;;;;;;5024748;28;20276;-73
2023/05/10 13:15:00;;;;;;;;;;;563.30;1536.00;;;;;;5029362;28;19959;-74
2023/05/10 13:17:26;;;;;;;;;;;538.20;1510.40;;;;;;5027381;28;19991;-72
2023/05/10 13:19:51;;;;;;;;;;;538.40;1510.40;;;;;;5026388;28;19909;-75
2023/05/10 13:22:17;;;;;;;;;;;538.50;1510.40;;;;;;5030171;28;19923;-75
2023/05/10 13:24:43;;;;;;;;;;;538.40;1510.40;;;;;;5022737;28;19916;-74
2023/05/10 13:27:08;;;;;;;;;;;537.80;1484.80;;;;;;5029051;28;20333;-75
2023/05/10 13:29:34;;;;;;;;;;;538.10;1536.00;;;;;;5027581;28;20281;-75
2023/05/10 13:32:00;;;;;;;;;;;538.50;1510.40;;;;;;5031526;28;19958;-75
2023/05/10 13:34:25;;;;;;;;;;;538.30;1510.40;;;;;;5056470;28;19931;-75
2023/05/10 13:36:51;;;;;;;;;;;537.80;1510.40;;;;;;5026598;28;19925;-75
2023/05/10 13:39:17;;;;;;;;;;;537.70;1536.00;;;;;;5028977;28;20347;-75